Time;durP1;ratioP1;P1;durP2;ratioP2;P2;SDS_P1;SDS_P2;PMS_P1;PMS_P2;Temp;Humidity;BMP_temperature;BMP_pressure;BME280_temperature;BME280_humidity;BME280_pressure;Samples;Min_cycle;Max_cycle;Signal;HPM_P1;HPM_P2
2022/06/17 00:00:21;;;;;;;8.98;3.55;;;21.10;96.50;;;;;;5024027;28;20033;-76
2022/06/17 00:02:46;;;;;;;8.88;3.45;;;21.10;96.50;;;;;;5018788;28;20120;-77
2022/06/17 00:05:12;;;;;;;8.43;3.40;;;21.10;96.50;;;;;;5022466;28;20080;-77
2022/06/17 00:07:41;;;;;;;6.03;3.17;;;21.20;96.30;;;;;;5018635;28;20036;-78
2022/06/17 00:10:18;;;;;;;5.75;3.33;;;21.00;96.80;;;;;;5027961;28;20467;-78
2022/06/17 00:12:44;;;;;;;6.13;3.30;;;20.90;97.00;;;;;;5028712;28;20022;-77
2022/06/17 00:15:13;;;;;;;7.78;3.45;;;20.90;97.10;;;;;;5026073;28;20042;-77
2022/06/17 00:18:02;;;;;;;6.78;3.20;;;21.00;97.00;;;;;;5027883;28;20464;-78
2022/06/17 00:20:30;;;;;;;5.82;3.75;;;21.00;96.90;;;;;;5021348;28;20038;-77
2022/06/17 00:22:55;;;;;;;7.03;3.38;;;21.10;96.80;;;;;;5028150;28;20518;-77
2022/06/17 00:25:29;;;;;;;5.57;3.60;;;21.00;97.00;;;;;;5032281;28;20059;-77
2022/06/17 00:27:57;;;;;;;6.63;3.30;;;20.80;97.30;;;;;;5018901;28;20061;-77
2022/06/17 00:30:25;;;;;;;8.05;3.30;;;20.70;97.60;;;;;;5033292;28;20571;-77
2022/06/17 00:32:53;;;;;;;6.95;3.38;;;20.80;97.60;;;;;;5025700;28;20416;-77
2022/06/17 00:35:19;;;;;;;7.22;3.60;;;20.80;97.60;;;;;;5029650;28;20029;-77
2022/06/17 00:37:44;;;;;;;5.65;3.47;;;20.80;97.40;;;;;;5026140;28;20033;-77
2022/06/17 00:40:18;;;;;;;7.63;3.42;;;20.70;97.70;;;;;;5024702;28;20036;-77
2022/06/17 00:42:44;;;;;;;9.20;3.42;;;20.50;98.00;;;;;;5025293;28;20116;-77
2022/06/17 00:45:29;;;;;;;8.95;3.45;;;20.50;98.10;;;;;;5025203;28;20032;-79
2022/06/17 00:48:11;;;;;;;5.70;3.42;;;20.70;97.80;;;;;;5029350;28;20052;-77
2022/06/17 00:50:52;;;;;;;5.72;3.70;;;20.80;97.50;;;;;;5033717;28;20072;-77
2022/06/17 00:53:38;;;;;;;9.10;3.90;;;21.00;97.10;;;;;;5028182;28;20033;-77
2022/06/17 00:56:25;;;;;;;7.63;3.50;;;21.00;97.10;;;;;;5022790;28;20049;-77
2022/06/17 00:59:13;;;;;;;8.45;3.85;;;20.90;97.20;;;;;;5026885;28;20087;-77
2022/06/17 01:02:09;;;;;;;6.72;3.88;;;21.00;97.20;;;;;;5023528;28;20021;-77
2022/06/17 01:04:42;;;;;;;6.93;3.80;;;21.00;97.20;;;;;;5018836;28;20111;-77
2022/06/17 01:07:14;;;;;;;5.93;3.83;;;21.00;97.10;;;;;;5022851;28;20021;-77
2022/06/17 01:09:57;;;;;;;7.78;4.00;;;21.20;96.90;;;;;;5023620;28;20036;-77
2022/06/17 01:12:30;;;;;;;6.78;3.22;;;21.50;96.30;;;;;;5020119;28;20045;-78
2022/06/17 01:14:57;;;;;;;7.13;3.60;;;21.60;96.30;;;;;;5032487;28;20037;-77
2022/06/17 01:17:25;;;;;;;7.60;4.10;;;21.60;96.50;;;;;;5027762;28;20032;-77
2022/06/17 01:19:55;;;;;;;9.60;5.07;;;21.50;96.60;;;;;;5027732;28;20679;-77
2022/06/17 01:22:26;;;;;;;6.22;3.45;;;21.30;96.70;;;;;;5026619;28;20509;-77
2022/06/17 01:25:04;;;;;;;6.63;3.70;;;21.20;97.00;;;;;;5030841;28;20388;-77
2022/06/17 01:27:45;;;;;;;8.63;4.22;;;21.00;97.30;;;;;;5026244;28;20486;-77
2022/06/17 01:30:18;;;;;;;6.80;3.97;;;20.80;97.70;;;;;;5022016;28;20025;-77
2022/06/17 01:32:57;;;;;;;9.90;4.20;;;20.70;97.30;;;;;;5023299;28;20025;-77
2022/06/17 01:35:26;;;;;;;9.77;4.50;;;20.60;97.60;;;;;;5026732;28;20041;-77
2022/06/17 01:37:52;;;;;;;7.75;3.55;;;20.40;97.90;;;;;;5028535;28;20057;-77
2022/06/17 01:40:19;;;;;;;8.50;3.90;;;20.40;97.70;;;;;;5023803;28;20458;-77
2022/06/17 01:42:45;;;;;;;7.68;3.55;;;20.50;97.60;;;;;;5032539;28;20546;-77
2022/06/17 01:45:12;;;;;;;5.20;3.50;;;20.60;97.20;;;;;;5029769;28;20033;-78
2022/06/17 01:47:41;;;;;;;6.82;3.80;;;20.60;97.00;;;;;;5024500;28;20046;-77
2022/06/17 01:50:11;;;;;;;10.05;3.40;;;20.80;96.70;;;;;;5028361;28;20491;-77
2022/06/17 01:52:39;;;;;;;10.70;4.60;;;21.00;96.60;;;;;;5025512;28;20042;-77
2022/06/17 01:55:11;;;;;;;6.75;3.70;;;21.00;96.70;;;;;;5031061;28;20507;-78
2022/06/17 01:57:43;;;;;;;7.00;3.75;;;21.00;96.80;;;;;;5028264;28;20415;-78
2022/06/17 02:00:17;;;;;;;7.07;4.68;;;21.10;96.80;;;;;;5021951;28;20025;-77
2022/06/17 02:02:46;;;;;;;8.10;3.78;;;21.10;97.10;;;;;;5024838;28;20029;-77
2022/06/17 02:05:12;;;;;;;6.40;3.50;;;20.80;97.40;;;;;;5017031;28;20025;-78
2022/06/17 02:07:45;;;;;;;8.40;4.65;;;20.70;97.60;;;;;;5024349;28;20040;-77
2022/06/17 02:10:11;;;;;;;8.85;4.03;;;20.60;97.90;;;;;;5021551;28;20380;-77
2022/06/17 02:12:38;;;;;;;8.27;4.85;;;20.30;98.20;;;;;;5027641;28;20033;-77
2022/06/17 02:15:05;;;;;;;7.00;3.60;;;20.30;98.30;;;;;;5026519;28;20038;-78
2022/06/17 02:17:35;;;;;;;5.30;3.15;;;20.30;98.30;;;;;;5022320;28;20396;-77
2022/06/17 02:20:01;;;;;;;6.07;3.40;;;20.00;98.70;;;;;;5025792;28;20061;-77
2022/06/17 02:22:30;;;;;;;9.35;3.65;;;20.00;98.70;;;;;;5027299;28;20498;-77
2022/06/17 02:25:01;;;;;;;8.35;4.25;;;20.00;98.70;;;;;;5023079;28;20030;-77
2022/06/17 02:27:29;;;;;;;9.38;3.67;;;20.00;98.60;;;;;;5029354;28;20392;-77
2022/06/17 02:29:56;;;;;;;10.15;4.53;;;19.90;98.50;;;;;;5019653;28;20475;-77
2022/06/17 02:32:22;;;;;;;6.68;4.20;;;19.90;98.40;;;;;;5027302;28;20057;-77
2022/06/17 02:34:54;;;;;;;7.35;3.80;;;19.90;98.60;;;;;;5029243;28;20052;-77
2022/06/17 02:37:20;;;;;;;4.75;3.17;;;20.00;98.30;;;;;;5023420;28;20065;-77
2022/06/17 02:39:49;;;;;;;7.70;3.75;;;19.80;98.20;;;;;;5025750;28;20029;-77
2022/06/17 02:42:42;;;;;;;6.00;3.25;;;19.60;98.80;;;;;;5020995;28;20484;-77
2022/06/17 02:45:15;;;;;;;9.73;4.20;;;19.40;99.20;;;;;;5018472;28;20041;-77
2022/06/17 02:47:41;;;;;;;8.48;3.53;;;19.50;98.80;;;;;;5027699;28;20475;-77
2022/06/17 02:50:13;;;;;;;7.30;3.28;;;19.60;98.70;;;;;;5019482;28;20029;-77
2022/06/17 02:52:40;;;;;;;7.45;3.88;;;19.80;98.60;;;;;;5030801;28;20116;-77
2022/06/17 02:55:29;;;;;;;7.75;4.03;;;19.80;98.70;;;;;;5027563;28;20052;-77
2022/06/17 02:58:06;;;;;;;11.13;4.25;;;19.70;98.70;;;;;;5027170;28;20491;-77
2022/06/17 03:00:32;;;;;;;5.13;3.38;;;19.50;99.00;;;;;;5025633;28;20017;-76
2022/06/17 03:03:03;;;;;;;6.25;4.03;;;19.60;98.80;;;;;;5022863;28;20040;-77
2022/06/17 03:05:32;;;;;;;9.05;3.83;;;19.60;98.60;;;;;;5023521;28;20122;-77
2022/06/17 03:07:59;;;;;;;11.27;3.80;;;19.70;98.60;;;;;;5017828;28;20354;-77
2022/06/17 03:10:31;;;;;;;7.30;3.55;;;19.70;98.50;;;;;;5017724;28;20179;-76
2022/06/17 03:13:21;;;;;;;7.47;4.03;;;19.70;98.20;;;;;;5012968;28;20426;-76
2022/06/17 03:15:49;;;;;;;6.70;3.33;;;19.60;98.50;;;;;;5011727;28;20054;-77
2022/06/17 03:18:15;;;;;;;5.82;3.28;;;19.50;98.70;;;;;;5017193;28;20089;-77
2022/06/17 03:20:42;;;;;;;6.28;3.75;;;19.40;98.50;;;;;;5020952;28;20084;-77
2022/06/17 03:23:13;;;;;;;8.38;3.33;;;19.10;98.80;;;;;;5022766;28;20549;-76
2022/06/17 03:26:10;;;;;;;11.43;3.80;;;19.20;98.90;;;;;;5016841;28;20098;-77
2022/06/17 03:28:56;;;;;;;10.27;4.10;;;19.30;98.90;;;;;;5016147;28;20034;-77
2022/06/17 03:31:36;;;;;;;8.82;3.30;;;19.30;98.80;;;;;;5019291;28;20045;-77
2022/06/17 03:34:10;;;;;;;6.65;3.63;;;19.30;98.70;;;;;;5022290;28;20037;-78
2022/06/17 03:36:44;;;;;;;;;;;19.30;98.50;;;;;;5016450;28;20052;-76
2022/06/17 03:39:29;;;;;;;7.38;3.75;;;19.10;98.90;;;;;;5019339;28;19909;-76
2022/06/17 03:42:18;;;;;;;8.32;3.65;;;19.30;98.80;;;;;;5013870;28;20928;-77
2022/06/17 03:44:53;;;;;;;7.50;3.83;;;19.20;99.00;;;;;;5018254;28;20099;-77
2022/06/17 03:47:25;;;;;;;7.32;3.92;;;19.00;99.50;;;;;;5019806;28;20155;-77
2022/06/17 03:49:55;;;;;;;6.30;3.88;;;18.90;99.60;;;;;;5016822;28;20037;-77
2022/06/17 03:52:42;;;;;;;7.10;4.35;;;18.90;99.30;;;;;;5025479;28;20040;-77
2022/06/17 03:55:15;;;;;;;10.00;4.00;;;18.90;99.40;;;;;;5022685;28;20030;-77
2022/06/17 03:57:45;;;;;;;6.50;3.75;;;19.00;99.10;;;;;;5024215;28;20034;-77
2022/06/17 04:00:28;;;;;;;9.23;3.80;;;18.90;99.30;;;;;;5020050;28;20028;-77
2022/06/17 04:02:56;;;;;;;8.50;3.47;;;18.90;99.30;;;;;;5025890;28;20116;-78
2022/06/17 04:05:22;;;;;;;7.03;3.70;;;19.10;98.80;;;;;;5027169;28;20032;-76
2022/06/17 04:07:48;;;;;;;6.82;3.60;;;18.90;99.10;;;;;;5027217;28;20029;-76
2022/06/17 04:10:18;;;;;;;8.15;3.50;;;18.70;99.30;;;;;;5025447;28;20644;-76
2022/06/17 04:12:47;;;;;;;7.13;3.83;;;18.80;99.30;;;;;;5027209;28;20084;-76
2022/06/17 04:15:44;;;;;;;8.50;3.28;;;19.00;98.80;;;;;;5025190;28;20068;-76
2022/06/17 04:18:09;;;;;;;6.55;3.78;;;19.00;98.90;;;;;;5023080;28;20021;-76
2022/06/17 04:20:41;;;;;;;7.40;3.50;;;19.20;98.70;;;;;;5020760;28;20037;-75
2022/06/17 04:23:11;;;;;;;7.40;3.30;;;19.10;99.10;;;;;;5022261;28;20030;-76
2022/06/17 04:25:52;;;;;;;5.55;3.03;;;19.10;98.90;;;;;;5022422;28;20467;-76
2022/06/17 04:28:28;;;;;;;9.73;3.85;;;19.20;98.20;;;;;;5028686;28;20395;-76
2022/06/17 04:31:01;;;;;;;7.63;3.10;;;19.50;97.40;;;;;;5020935;28;20041;-76
2022/06/17 04:33:37;;;;;;;7.90;3.50;;;19.40;98.00;;;;;;5026029;28;20072;-76
2022/06/17 04:36:40;;;;;;;7.75;2.80;;;19.20;98.30;;;;;;5016095;28;20125;-76
2022/06/17 04:39:26;;;;;;;5.50;3.60;;;19.20;98.50;;;;;;5020050;28;20106;-76
2022/06/17 04:41:56;;;;;;;4.88;3.10;;;19.40;97.80;;;;;;5024575;28;20415;-77
2022/06/17 04:44:22;;;;;;;7.68;3.47;;;19.50;97.80;;;;;;5024752;28;20486;-75
2022/06/17 04:46:58;;;;;;;6.25;3.60;;;19.30;98.50;;;;;;5025423;28;20060;-75
2022/06/17 04:49:28;;;;;;;5.80;3.70;;;19.20;98.70;;;;;;5019466;28;20045;-76
2022/06/17 04:52:01;;;;;;;5.22;3.55;;;19.30;99.00;;;;;;5020723;28;20111;-76
2022/06/17 04:54:29;;;;;;;6.40;3.35;;;19.20;98.70;;;;;;5024269;28;20038;-75
2022/06/17 04:56:57;;;;;;;4.78;2.95;;;19.10;98.90;;;;;;5019196;28;20037;-76
2022/06/17 04:59:40;;;;;;;7.05;3.47;;;19.10;98.90;;;;;;5017554;28;20028;-76
2022/06/17 05:02:22;;;;;;;6.70;3.50;;;18.90;99.10;;;;;;5012584;28;20034;-77
2022/06/17 05:04:51;;;;;;;7.93;3.55;;;19.10;98.60;;;;;;5024447;28;20396;-76
2022/06/17 05:07:18;;;;;;;9.98;3.70;;;19.10;98.40;;;;;;5029587;28;20032;-76
2022/06/17 05:09:52;;;;;;;6.82;3.55;;;19.30;98.10;;;;;;5025820;28;20045;-77
2022/06/17 05:12:24;;;;;;;5.65;3.17;;;19.30;98.30;;;;;;5025014;28;20036;-76
2022/06/17 05:15:06;;;;;;;7.35;3.30;;;19.40;97.40;;;;;;5021673;28;20395;-76
2022/06/17 05:17:33;;;;;;;9.32;3.40;;;19.40;97.90;;;;;;5020201;28;20029;-76
2022/06/17 05:19:58;;;;;;;5.65;3.25;;;19.40;97.70;;;;;;5022714;28;20526;-76
2022/06/17 05:22:34;;;;;;;5.85;3.13;;;19.40;98.40;;;;;;5023207;28;20038;-76
2022/06/17 05:25:03;;;;;;;5.43;3.08;;;19.30;98.30;;;;;;5023292;28;20033;-75
2022/06/17 05:27:29;;;;;;;9.98;3.22;;;19.20;98.90;;;;;;5022728;28;20034;-74
2022/06/17 05:29:55;;;;;;;10.40;4.35;;;19.20;98.70;;;;;;5028048;28;20097;-74
2022/06/17 05:32:22;;;;;;;7.53;3.03;;;19.50;97.80;;;;;;5024802;28;20120;-76
2022/06/17 05:34:48;;;;;;;7.60;3.08;;;19.60;97.30;;;;;;5026268;28;20037;-78
2022/06/17 05:37:14;;;;;;;5.35;3.53;;;19.90;96.90;;;;;;5017453;28;20151;-74
2022/06/17 05:39:40;;;;;;;4.85;3.55;;;20.00;96.60;;;;;;5019345;28;20045;-76
2022/06/17 05:42:06;;;;;;;6.70;3.03;;;20.10;96.60;;;;;;5032900;28;20040;-77
2022/06/17 05:44:33;;;;;;;7.72;2.92;;;20.20;96.60;;;;;;5017248;28;20521;-75
2022/06/17 05:46:59;;;;;;;7.28;2.70;;;20.10;97.10;;;;;;5022725;28;20076;-76
2022/06/17 05:49:25;;;;;;;7.63;3.00;;;20.10;96.50;;;;;;5022695;28;20183;-75
2022/06/17 05:51:51;;;;;;;9.32;3.80;;;20.40;95.90;;;;;;5018944;28;20040;-75
2022/06/17 05:54:17;;;;;;;7.05;3.55;;;20.50;96.10;;;;;;5022503;28;20612;-75
2022/06/17 05:56:44;;;;;;;7.22;3.50;;;20.50;97.00;;;;;;5015317;28;20075;-75
2022/06/17 05:59:10;;;;;;;7.30;3.75;;;20.50;97.70;;;;;;5022491;28;20072;-75
2022/06/17 06:01:37;;;;;;;7.68;3.72;;;20.30;98.10;;;;;;5019562;28;20381;-75
2022/06/17 06:04:03;;;;;;;8.27;3.58;;;20.30;98.30;;;;;;5022585;28;20033;-75
2022/06/17 06:06:28;;;;;;;10.52;3.83;;;20.20;99.00;;;;;;5019431;28;20029;-74
2022/06/17 06:08:54;;;;;;;6.53;3.75;;;20.30;98.70;;;;;;5016123;28;20044;-74
2022/06/17 06:11:20;;;;;;;8.43;3.60;;;20.40;98.50;;;;;;5023710;28;20032;-75
2022/06/17 06:13:46;;;;;;;6.22;2.88;;;20.60;98.80;;;;;;5023014;28;20094;-74
2022/06/17 06:16:13;;;;;;;7.22;3.47;;;20.60;98.50;;;;;;5019341;28;20045;-75
2022/06/17 06:18:39;;;;;;;8.38;4.40;;;20.70;99.00;;;;;;5014192;28;20353;-75
2022/06/17 06:21:06;;;;;;;9.55;5.22;;;20.60;99.30;;;;;;5021712;28;20484;-75
2022/06/17 06:23:34;;;;;;;8.38;4.35;;;20.60;99.30;;;;;;5020980;28;20044;-76
2022/06/17 06:26:00;;;;;;;8.98;4.20;;;20.70;99.00;;;;;;5021753;28;20040;-75
2022/06/17 06:28:27;;;;;;;7.53;4.25;;;20.60;98.70;;;;;;5023314;28;20041;-76
2022/06/17 06:31:01;;;;;;;8.57;4.13;;;20.60;97.90;;;;;;5023068;28;20053;-75
2022/06/17 06:33:27;;;;;;;14.00;4.60;;;20.70;97.50;;;;;;5022239;28;20559;-75
2022/06/17 06:35:53;;;;;;;9.73;4.25;;;20.80;98.00;;;;;;5017804;28;20091;-75
2022/06/17 06:38:19;;;;;;;11.10;4.25;;;20.90;97.80;;;;;;5023306;28;20026;-74
2022/06/17 06:40:45;;;;;;;6.90;3.75;;;21.10;97.80;;;;;;5023911;28;20664;-73
2022/06/17 06:43:16;;;;;;;7.25;3.72;;;21.20;97.30;;;;;;5017685;28;20079;-75
2022/06/17 06:45:43;;;;;;;11.38;3.80;;;21.30;95.90;;;;;;5016718;28;20025;-74
2022/06/17 06:48:11;;;;;;;7.07;4.07;;;21.40;96.10;;;;;;5023478;28;20029;-74
2022/06/17 06:50:38;;;;;;;8.63;3.80;;;21.50;94.80;;;;;;5015941;28;20040;-74
2022/06/17 06:53:05;;;;;;;7.30;4.00;;;21.60;95.60;;;;;;5017566;28;20030;-74
2022/06/17 06:55:31;;;;;;;9.05;4.35;;;21.70;93.70;;;;;;5024994;28;20048;-75
2022/06/17 06:58:02;;;;;;;10.27;3.83;;;21.90;94.20;;;;;;5021274;28;20392;-74
2022/06/17 07:00:33;;;;;;;6.93;3.90;;;22.10;94.50;;;;;;5025051;28;20030;-74
2022/06/17 07:02:59;;;;;;;7.68;3.85;;;22.30;94.00;;;;;;5025765;28;20141;-74
2022/06/17 07:05:25;;;;;;;8.57;4.00;;;22.50;93.50;;;;;;5025688;28;20463;-74
2022/06/17 07:07:51;;;;;;;7.00;3.42;;;22.70;93.40;;;;;;5025073;28;20034;-74
2022/06/17 07:10:24;;;;;;;9.02;3.92;;;22.90;93.40;;;;;;5024898;28;20029;-74
2022/06/17 07:12:50;;;;;;;6.30;3.65;;;23.00;92.60;;;;;;5023274;28;20034;-74
2022/06/17 07:15:17;;;;;;;9.38;4.05;;;23.20;93.00;;;;;;5024768;28;20033;-73
2022/06/17 07:18:03;;;;;;;9.63;3.40;;;23.50;92.90;;;;;;5020996;28;20034;-73
2022/06/17 07:20:39;;;;;;;8.02;3.72;;;23.80;92.40;;;;;;5023615;28;20037;-74
2022/06/17 07:23:07;;;;;;;8.05;4.82;;;24.00;92.60;;;;;;5023150;28;20022;-74
2022/06/17 07:25:33;;;;;;;7.50;3.38;;;24.20;92.60;;;;;;5026081;28;20112;-74
2022/06/17 07:28:00;;;;;;;8.93;3.78;;;24.30;91.60;;;;;;5023239;28;20107;-74
2022/06/17 07:30:26;;;;;;;7.95;3.47;;;24.60;91.00;;;;;;5017142;28;20052;-74
2022/06/17 07:32:52;;;;;;;6.82;3.63;;;25.20;90.20;;;;;;5024930;28;20026;-74
2022/06/17 07:35:18;;;;;;;7.72;3.33;;;25.70;89.70;;;;;;5028031;28;20037;-75
2022/06/17 07:40:28;;;;;;;7.85;3.92;;;26.90;90.30;;;;;;5023225;28;20815;-75
2022/06/17 07:42:55;;;;;;;5.05;3.38;;;27.10;88.60;;;;;;5029139;28;20132;-75
2022/06/17 07:45:23;;;;;;;6.60;3.97;;;27.30;87.90;;;;;;5024294;28;20021;-75
2022/06/17 07:47:49;;;;;;;6.47;3.30;;;27.60;87.40;;;;;;5029437;28;20036;-75
2022/06/17 07:50:25;;;;;;;8.27;4.20;;;27.20;89.10;;;;;;5028577;28;20033;-75
2022/06/17 07:52:51;;;;;;;5.40;3.88;;;26.90;89.50;;;;;;5027421;28;20136;-75
2022/06/17 07:55:17;;;;;;;8.63;4.40;;;26.70;90.00;;;;;;5020694;28;20114;-75
2022/06/17 07:57:43;;;;;;;5.35;3.72;;;26.80;90.00;;;;;;5026821;28;20068;-75
2022/06/17 08:00:18;;;;;;;6.10;4.15;;;26.30;90.10;;;;;;5024594;28;20026;-75
2022/06/17 08:02:43;;;;;;;9.30;4.10;;;26.20;89.90;;;;;;5027935;28;20038;-75
2022/06/17 08:05:09;;;;;;;5.68;3.38;;;26.20;90.10;;;;;;5027887;28;20036;-76
2022/06/17 08:07:35;;;;;;;9.25;4.05;;;26.20;89.60;;;;;;5022858;28;20039;-76
2022/06/17 08:10:00;;;;;;;18.05;3.92;;;26.30;90.30;;;;;;5027987;28;20502;-75
2022/06/17 08:12:26;;;;;;;7.07;3.45;;;26.30;90.50;;;;;;5027983;28;20428;-75
2022/06/17 08:14:54;;;;;;;8.55;3.70;;;26.30;90.70;;;;;;5027727;28;20029;-76
2022/06/17 08:17:20;;;;;;;6.35;3.60;;;26.40;89.00;;;;;;5023549;28;20030;-75
2022/06/17 08:19:48;;;;;;;11.75;3.75;;;26.60;89.90;;;;;;5027448;28;20078;-76
2022/06/17 08:22:13;;;;;;;7.07;3.90;;;26.80;89.90;;;;;;5025447;28;20468;-75
2022/06/17 08:24:39;;;;;;;10.13;4.32;;;26.50;89.70;;;;;;5024579;28;20029;-76
2022/06/17 08:27:05;;;;;;;10.10;3.45;;;26.60;88.10;;;;;;5025706;28;20033;-76
2022/06/17 08:29:31;;;;;;;8.32;4.15;;;26.50;88.70;;;;;;5023410;28;20052;-75
2022/06/17 08:32:44;;;;;;;8.27;3.80;;;26.80;89.70;;;;;;5019275;28;20053;-76
2022/06/17 08:34:42;;;;;;;9.85;4.80;;;26.80;89.70;;;;;;5023661;28;20053;-76
2022/06/17 08:37:10;;;;;;;6.88;3.67;;;26.80;89.40;;;;;;5022313;28;20035;-76
2022/06/17 08:39:36;;;;;;;10.35;4.03;;;27.00;87.70;;;;;;5025263;28;20075;-76
2022/06/17 08:42:09;;;;;;;7.78;3.20;;;26.80;87.70;;;;;;5025123;28;20033;-75
2022/06/17 08:44:51;;;;;;;6.50;3.30;;;26.80;87.20;;;;;;5025336;28;20052;-76
2022/06/17 08:47:52;;;;;;;12.32;3.75;;;26.80;88.80;;;;;;5026309;28;20740;-75
2022/06/17 08:50:29;;;;;;;6.43;3.70;;;26.90;89.80;;;;;;5019807;28;20040;-76
2022/06/17 08:53:02;;;;;;;8.85;3.75;;;26.80;87.60;;;;;;5017816;28;20160;-75
2022/06/17 08:55:45;;;;;;;5.72;3.35;;;27.30;87.80;;;;;;5021472;28;20124;-76
2022/06/17 08:58:36;;;;;;;6.80;3.60;;;27.50;86.50;;;;;;5020311;28;20040;-76
2022/06/17 09:01:29;;;;;;;8.55;3.25;;;27.40;88.70;;;;;;5023911;28;20652;-75
2022/06/17 09:04:19;;;;;;;7.97;3.65;;;27.40;88.40;;;;;;5021136;28;20029;-75
2022/06/17 09:07:03;;;;;;;5.70;3.65;;;27.60;88.10;;;;;;5023067;28;20056;-76
2022/06/17 09:09:57;;;;;;;7.75;4.40;;;27.60;86.80;;;;;;5017033;28;20571;-76
2022/06/17 09:12:55;;;;;;;7.70;3.05;;;27.60;88.50;;;;;;5001525;28;20091;-76
2022/06/17 09:15:40;;;;;;;7.60;3.28;;;27.50;86.40;;;;;;5023953;28;20053;-76
2022/06/17 09:18:51;;;;;;;5.90;3.50;;;27.70;86.70;;;;;;5022288;28;20030;-76
2022/06/17 09:21:25;;;;;;;6.68;3.47;;;28.00;87.20;;;;;;5021261;28;20507;-76
2022/06/17 09:23:53;;;;;;;9.13;4.30;;;27.80;86.30;;;;;;5023263;28;20044;-75
2022/06/17 09:26:31;;;;;;;5.95;3.90;;;27.90;87.00;;;;;;5017887;28;20091;-76
2022/06/17 09:29:01;;;;;;;6.68;3.42;;;28.30;86.60;;;;;;5024722;28;20029;-75
2022/06/17 09:31:42;;;;;;;9.32;3.25;;;28.20;86.60;;;;;;5022856;28;20038;-76
2022/06/17 09:34:21;;;;;;;5.35;3.25;;;28.40;86.70;;;;;;5016698;28;20052;-76
2022/06/17 09:36:54;;;;;;;8.35;4.10;;;28.50;87.90;;;;;;5017524;28;20590;-76
2022/06/17 09:39:34;;;;;;;10.90;4.63;;;28.60;87.40;;;;;;5022578;28;20479;-76
2022/06/17 09:42:06;;;;;;;7.50;3.30;;;28.50;88.90;;;;;;5018908;28;20032;-77
2022/06/17 09:45:07;;;;;;;7.78;3.83;;;28.70;85.90;;;;;;5021873;28;20106;-76
2022/06/17 09:47:54;;;;;;;5.50;3.08;;;29.10;88.00;;;;;;5012369;28;20076;-76
2022/06/17 09:50:36;;;;;;;8.02;3.00;;;29.10;85.70;;;;;;5022101;28;20057;-76
2022/06/17 09:53:09;;;;;;;11.10;3.95;;;28.70;84.40;;;;;;5023458;28;20030;-77
2022/06/17 09:55:40;;;;;;;7.28;3.53;;;29.10;87.20;;;;;;5014139;28;20116;-76
2022/06/17 09:58:28;;;;;;;6.80;3.17;;;29.10;83.00;;;;;;5019067;28;20083;-76
2022/06/17 10:00:56;;;;;;;9.45;3.65;;;29.50;83.90;;;;;;5021189;28;20033;-76
2022/06/17 10:03:32;;;;;;;6.22;3.25;;;29.70;84.40;;;;;;5021380;28;20067;-76
2022/06/17 10:06:16;;;;;;;6.97;2.90;;;29.90;83.80;;;;;;5021654;28;20544;-76
2022/06/17 10:09:19;;;;;;;6.68;3.30;;;29.70;81.60;;;;;;5024965;28;20033;-76
2022/06/17 10:12:00;;;;;;;10.57;3.42;;;29.50;83.60;;;;;;5026360;28;20511;-76
2022/06/17 10:14:53;;;;;;;6.00;3.20;;;29.80;82.30;;;;;;5026368;28;20345;-76
2022/06/17 10:20:51;;;;;;;6.53;3.15;;;29.90;81.30;;;;;;5020965;28;20045;-76
2022/06/17 10:23:24;;;;;;;7.50;3.63;;;30.10;82.80;;;;;;5022125;28;20043;-77
2022/06/17 10:25:53;;;;;;;5.65;2.92;;;30.20;82.40;;;;;;5019158;28;20195;-76
2022/06/17 10:28:46;;;;;;;6.45;3.10;;;30.10;80.10;;;;;;5027165;28;20048;-77
2022/06/17 10:31:24;;;;;;;6.90;3.15;;;30.30;84.00;;;;;;5021779;28;20094;-78
2022/06/17 10:33:49;;;;;;;7.15;3.40;;;30.30;81.50;;;;;;5021463;28;20036;-77
2022/06/17 10:36:16;;;;;;;8.95;3.67;;;30.30;81.50;;;;;;5027258;28;20033;-77
2022/06/17 10:38:45;;;;;;;4.65;2.88;;;30.50;81.10;;;;;;5026217;28;20076;-77
2022/06/17 10:41:12;;;;;;;6.60;2.97;;;30.70;81.80;;;;;;5026815;28;20495;-77
2022/06/17 10:44:08;;;;;;;7.43;3.72;;;30.70;82.50;;;;;;5027323;28;20038;-77
2022/06/17 10:46:39;;;;;;;6.88;3.17;;;30.70;82.30;;;;;;5025837;28;20059;-77
2022/06/17 10:49:29;;;;;;;9.70;3.45;;;30.80;82.20;;;;;;5026744;28;20032;-77
2022/06/17 10:51:58;;;;;;;7.38;3.25;;;30.70;81.00;;;;;;5014589;28;20038;-77
2022/06/17 10:54:34;;;;;;;7.15;3.25;;;30.90;82.00;;;;;;5024186;28;20436;-77
2022/06/17 10:57:10;;;;;;;6.45;2.80;;;30.70;80.70;;;;;;5016979;28;20029;-77
2022/06/17 10:59:41;;;;;;;4.95;2.80;;;31.00;77.00;;;;;;5017629;28;20037;-77
2022/06/17 11:02:26;;;;;;;6.78;3.30;;;31.20;78.70;;;;;;5023983;28;20052;-76
2022/06/17 11:04:54;;;;;;;5.78;2.63;;;31.30;77.30;;;;;;5022033;28;20095;-77
2022/06/17 11:07:57;;;;;;;4.97;2.55;;;31.30;77.30;;;;;;5023825;28;20045;-76
2022/06/17 11:10:30;;;;;;;8.10;2.97;;;31.00;76.90;;;;;;5024748;28;20124;-77
2022/06/17 11:12:59;;;;;;;7.13;2.38;;;31.00;77.90;;;;;;5026390;28;20029;-77
2022/06/17 11:15:32;;;;;;;3.92;2.30;;;31.20;78.20;;;;;;5026825;28;20037;-77
2022/06/17 11:18:04;;;;;;;7.47;2.90;;;30.90;78.10;;;;;;5026872;28;20052;-76
2022/06/17 11:20:33;;;;;;;7.07;2.25;;;31.20;76.80;;;;;;5024290;28;20022;-77
2022/06/17 11:23:04;;;;;;;4.32;2.08;;;31.60;76.50;;;;;;5024502;28;20038;-76
2022/06/17 11:25:34;;;;;;;4.93;2.30;;;31.40;74.50;;;;;;5022168;28;20431;-76
2022/06/17 11:28:14;;;;;;;5.22;2.63;;;31.60;75.50;;;;;;5023937;28;20042;-77
2022/06/17 11:31:30;;;;;;;7.00;3.13;;;31.50;76.00;;;;;;5021956;28;20180;-76
2022/06/17 11:34:18;;;;;;;6.40;3.20;;;31.90;75.50;;;;;;5005574;28;20534;-76
2022/06/17 11:37:12;;;;;;;6.45;2.47;;;32.20;79.00;;;;;;5024367;28;20415;-76
2022/06/17 11:39:38;;;;;;;7.05;3.67;;;31.90;77.00;;;;;;5019017;28;20455;-75
2022/06/17 11:42:17;;;;;;;8.73;3.22;;;32.10;77.50;;;;;;5018921;28;20021;-75
2022/06/17 11:44:56;;;;;;;6.18;2.70;;;31.80;75.60;;;;;;5018954;28;20040;-75
2022/06/17 11:47:25;;;;;;;5.40;2.15;;;32.00;76.40;;;;;;5020893;28;20021;-75
2022/06/17 11:49:56;;;;;;;6.28;2.58;;;32.10;73.40;;;;;;5019257;28;20025;-75
2022/06/17 11:52:35;;;;;;;6.80;2.65;;;32.10;74.70;;;;;;5022520;28;20026;-75
2022/06/17 11:55:02;;;;;;;6.78;2.30;;;32.50;76.50;;;;;;5015464;28;20038;-76
2022/06/17 11:57:32;;;;;;;6.68;2.60;;;32.70;74.60;;;;;;5018594;28;20025;-75
2022/06/17 12:00:04;;;;;;;5.18;2.38;;;32.60;73.90;;;;;;5014605;28;20068;-76
2022/06/17 12:02:30;;;;;;;3.80;2.50;;;32.60;71.80;;;;;;5018283;28;20064;-75
2022/06/17 12:05:05;;;;;;;4.65;2.35;;;32.90;74.10;;;;;;5023086;28;20029;-76
2022/06/17 12:07:45;;;;;;;5.43;3.08;;;33.00;75.20;;;;;;5020305;28;20029;-76
2022/06/17 12:10:30;;;;;;;3.85;2.20;;;32.90;72.80;;;;;;5025118;28;20044;-75
2022/06/17 12:13:30;;;;;;;4.22;2.00;;;32.60;70.40;;;;;;5025825;28;20025;-75
2022/06/17 12:16:13;;;;;;;4.60;2.38;;;32.30;70.20;;;;;;5022965;28;20045;-75
2022/06/17 12:18:44;;;;;;;4.85;2.22;;;32.60;69.30;;;;;;5021825;28;20025;-75
2022/06/17 12:21:34;;;;;;;5.88;2.40;;;32.70;72.00;;;;;;5026127;28;20660;-75
2022/06/17 12:24:30;;;;;;;7.63;2.88;;;32.90;72.40;;;;;;5028055;28;20049;-75
2022/06/17 12:27:07;;;;;;;7.35;2.65;;;32.70;71.20;;;;;;5026937;28;20083;-75
2022/06/17 12:29:44;;;;;;;8.07;2.70;;;32.50;68.60;;;;;;5024403;28;20470;-75
2022/06/17 12:32:15;;;;;;;6.38;2.17;;;32.80;70.10;;;;;;5019110;28;20053;-74
2022/06/17 12:35:03;;;;;;;6.47;2.20;;;33.10;69.90;;;;;;5027734;28;20044;-74
2022/06/17 12:37:38;;;;;;;7.50;2.15;;;33.50;70.10;;;;;;5024475;28;20033;-74
2022/06/17 12:40:29;;;;;;;6.25;1.88;;;33.50;69.40;;;;;;5026238;28;20060;-76
2022/06/17 12:43:15;;;;;;;4.53;1.77;;;33.30;67.90;;;;;;5004639;28;20041;-75
2022/06/17 12:45:57;;;;;;;8.73;2.00;;;33.50;69.10;;;;;;5020904;28;20160;-74
2022/06/17 12:48:25;;;;;;;3.88;2.08;;;33.50;68.60;;;;;;5021640;28;20057;-74
2022/06/17 12:54:02;;;;;;;5.65;1.60;;;33.50;67.50;;;;;;5016936;28;20040;-75
2022/06/17 12:56:41;;;;;;;6.47;2.20;;;33.50;68.00;;;;;;5013959;28;20495;-74
2022/06/17 12:59:37;;;;;;;6.00;2.15;;;33.60;67.50;;;;;;5025196;28;20867;-75
2022/06/17 13:02:15;;;;;;;4.85;2.10;;;33.90;70.90;;;;;;5020953;28;20075;-74
2022/06/17 13:04:47;;;;;;;2.85;1.65;;;33.90;66.80;;;;;;5025045;28;20022;-74
2022/06/17 13:07:29;;;;;;;3.95;1.75;;;33.80;67.00;;;;;;5021804;28;20029;-74
2022/06/17 13:10:46;;;;;;;3.60;1.73;;;33.90;67.90;;;;;;5014319;28;20025;-74
2022/06/17 13:13:31;;;;;;;5.38;1.63;;;33.80;65.60;;;;;;4993315;28;20583;-75
2022/06/17 13:16:02;;;;;;;4.85;2.60;;;33.20;64.50;;;;;;5024500;28;20045;-75
2022/06/17 13:18:45;;;;;;;4.72;1.45;;;33.60;66.40;;;;;;5018099;28;20029;-74
2022/06/17 13:21:33;;;;;;;3.63;1.88;;;33.50;64.30;;;;;;5021438;28;20136;-74
2022/06/17 13:23:58;;;;;;;4.10;1.60;;;33.70;65.60;;;;;;5017184;28;20025;-74
2022/06/17 13:26:48;;;;;;;3.92;1.95;;;33.60;63.80;;;;;;5022629;28;20029;-74
2022/06/17 13:29:43;;;;;;;5.18;1.90;;;33.70;62.80;;;;;;5016167;28;20037;-74